sensor_id;sensor_type;location;lat;lon;timestamp;pressure;altitude;pressure_sealevel;temperature;humidity
29903;BME280;30288;50.514;9.678;2023-02-28T00:00:38;99842.94;;;-1.35;100.00
29903;BME280;30288;50.514;9.678;2023-02-28T00:02:44;99839.22;;;-1.24;100.00
29903;BME280;30288;50.514;9.678;2023-02-28T00:04:49;99847.53;;;-1.22;100.00
29903;BME280;30288;50.514;9.678;2023-02-28T00:06:54;99843.75;;;-1.12;100.00
29903;BME280;30288;50.514;9.678;2023-02-28T00:08:59;99840.00;;;-1.03;100.00
29903;BME280;30288;50.514;9.678;2023-02-28T00:11:06;99840.94;;;-0.99;100.00
29903;BME280;30288;50.514;9.678;2023-02-28T00:13:12;99838.53;;;-0.98;100.00
29903;BME280;30288;50.514;9.678;2023-02-28T00:15:17;99836.75;;;-1.02;100.00
29903;BME280;30288;50.514;9.678;2023-02-28T00:17:25;99840.16;;;-0.98;100.00
29903;BME280;30288;50.514;9.678;2023-02-28T00:19:30;99832.88;;;-0.95;100.00
29903;BME280;30288;50.514;9.678;2023-02-28T00:21:35;99839.59;;;-0.91;100.00
29903;BME280;30288;50.514;9.678;2023-02-28T00:23:42;99845.47;;;-0.88;100.00
29903;BME280;30288;50.514;9.678;2023-02-28T00:25:47;99834.13;;;-0.82;100.00
29903;BME280;30288;50.514;9.678;2023-02-28T00:27:53;99823.59;;;-0.77;100.00
29903;BME280;30288;50.514;9.678;2023-02-28T00:29:57;99827.94;;;-0.71;100.00
29903;BME280;30288;50.514;9.678;2023-02-28T00:32:05;99837.75;;;-0.73;100.00
29903;BME280;30288;50.514;9.678;2023-02-28T00:34:15;99839.47;;;-0.70;100.00
29903;BME280;30288;50.514;9.678;2023-02-28T00:36:21;99834.38;;;-0.75;100.00
29903;BME280;30288;50.514;9.678;2023-02-28T00:38:26;99829.44;;;-0.75;100.00
29903;BME280;30288;50.514;9.678;2023-02-28T00:40:31;99826.78;;;-0.81;100.00
29903;BME280;30288;50.514;9.678;2023-02-28T00:42:36;99831.44;;;-0.89;100.00
29903;BME280;30288;50.514;9.678;2023-02-28T00:44:41;99833.47;;;-1.01;100.00
29903;BME280;30288;50.514;9.678;2023-02-28T00:46:46;99836.75;;;-1.02;100.00
29903;BME280;30288;50.514;9.678;2023-02-28T00:48:51;99833.66;;;-1.18;100.00
29903;BME280;30288;50.514;9.678;2023-02-28T00:50:59;99838.88;;;-1.33;100.00
29903;BME280;30288;50.514;9.678;2023-02-28T00:53:04;99835.41;;;-1.38;100.00
29903;BME280;30288;50.514;9.678;2023-02-28T00:55:09;99841.69;;;-1.46;100.00
29903;BME280;30288;50.514;9.678;2023-02-28T00:57:14;99838.19;;;-1.51;100.00
29903;BME280;30288;50.514;9.678;2023-02-28T00:59:19;99836.28;;;-1.58;100.00
29903;BME280;30288;50.514;9.678;2023-02-28T01:01:24;99837.63;;;-1.66;100.00
29903;BME280;30288;50.514;9.678;2023-02-28T01:03:29;99835.59;;;-1.77;100.00
29903;BME280;30288;50.514;9.678;2023-02-28T01:05:34;99835.59;;;-1.77;100.00
29903;BME280;30288;50.514;9.678;2023-02-28T01:07:42;99835.09;;;-1.89;100.00
29903;BME280;30288;50.514;9.678;2023-02-28T01:09:47;99836.91;;;-1.85;100.00
29903;BME280;30288;50.514;9.678;2023-02-28T01:11:52;99833.91;;;-1.78;100.00
29903;BME280;30288;50.514;9.678;2023-02-28T01:13:57;99827.03;;;-1.85;100.00
29903;BME280;30288;50.514;9.678;2023-02-28T01:16:03;99829.38;;;-1.88;100.00
29903;BME280;30288;50.514;9.678;2023-02-28T01:18:09;99832.59;;;-1.90;100.00
29903;BME280;30288;50.514;9.678;2023-02-28T01:20:14;99826.81;;;-1.91;100.00
29903;BME280;30288;50.514;9.678;2023-02-28T01:22:19;99831.75;;;-1.91;100.00
29903;BME280;30288;50.514;9.678;2023-02-28T01:24:27;99833.19;;;-1.96;100.00
29903;BME280;30288;50.514;9.678;2023-02-28T01:26:32;99828.97;;;-1.98;100.00
29903;BME280;30288;50.514;9.678;2023-02-28T01:28:37;99831.69;;;-1.92;100.00
29903;BME280;30288;50.514;9.678;2023-02-28T01:30:42;99829.91;;;-1.95;100.00
29903;BME280;30288;50.514;9.678;2023-02-28T01:32:47;99835.00;;;-1.92;100.00
29903;BME280;30288;50.514;9.678;2023-02-28T01:34:55;99827.75;;;-2.08;100.00
29903;BME280;30288;50.514;9.678;2023-02-28T01:37:00;99832.84;;;-2.05;100.00
29903;BME280;30288;50.514;9.678;2023-02-28T01:39:05;99822.72;;;-2.11;100.00
29903;BME280;30288;50.514;9.678;2023-02-28T01:41:17;99827.75;;;-2.08;100.00
29903;BME280;30288;50.514;9.678;2023-02-28T01:43:24;99833.25;;;-2.15;100.00
29903;BME280;30288;50.514;9.678;2023-02-28T01:45:31;99823.91;;;-2.22;100.00
29903;BME280;30288;50.514;9.678;2023-02-28T01:47:41;99830.75;;;-2.36;100.00
29903;BME280;30288;50.514;9.678;2023-02-28T01:49:47;99828.19;;;-2.37;100.00
29903;BME280;30288;50.514;9.678;2023-02-28T01:51:55;99830.66;;;-2.37;100.00
29903;BME280;30288;50.514;9.678;2023-02-28T01:54:05;99828.09;;;-2.40;100.00
29903;BME280;30288;50.514;9.678;2023-02-28T01:56:23;99823.03;;;-2.43;100.00
29903;BME280;30288;50.514;9.678;2023-02-28T01:58:28;99827.84;;;-2.46;100.00
29903;BME280;30288;50.514;9.678;2023-02-28T02:00:33;99825.25;;;-2.49;100.00
29903;BME280;30288;50.514;9.678;2023-02-28T02:02:43;99825.19;;;-2.51;100.00
29903;BME280;30288;50.514;9.678;2023-02-28T02:04:54;99823.94;;;-2.60;100.00
29903;BME280;30288;50.514;9.678;2023-02-28T02:07:00;99812.44;;;-2.61;100.00
29903;BME280;30288;50.514;9.678;2023-02-28T02:09:06;99820.19;;;-2.52;100.00
29903;BME280;30288;50.514;9.678;2023-02-28T02:11:14;99817.75;;;-2.52;100.00
29903;BME280;30288;50.514;9.678;2023-02-28T02:13:38;99814.81;;;-2.63;100.00
29903;BME280;30288;50.514;9.678;2023-02-28T02:15:59;99805.53;;;-2.69;100.00
29903;BME280;30288;50.514;9.678;2023-02-28T02:18:19;99811.91;;;-2.74;100.00
29903;BME280;30288;50.514;9.678;2023-02-28T02:21:14;99804.25;;;-2.80;100.00
29903;BME280;30288;50.514;9.678;2023-02-28T02:26:27;99801.53;;;-2.86;100.00
29903;BME280;30288;50.514;9.678;2023-02-28T02:29:13;99799.97;;;-2.84;100.00
29903;BME280;30288;50.514;9.678;2023-02-28T02:31:50;99798.03;;;-2.91;100.00
29903;BME280;30288;50.514;9.678;2023-02-28T02:34:41;99791.50;;;-2.90;100.00
29903;BME280;30288;50.514;9.678;2023-02-28T02:36:51;99798.88;;;-2.90;100.00
29903;BME280;30288;50.514;9.678;2023-02-28T02:39:02;99797.88;;;-2.94;100.00
29903;BME280;30288;50.514;9.678;2023-02-28T02:41:16;99797.78;;;-2.97;100.00
29903;BME280;30288;50.514;9.678;2023-02-28T02:43:28;99792.72;;;-3.00;100.00
29903;BME280;30288;50.514;9.678;2023-02-28T02:45:39;99793.81;;;-2.93;100.00
29903;BME280;30288;50.514;9.678;2023-02-28T02:47:45;99793.13;;;-2.91;100.00
29903;BME280;30288;50.514;9.678;2023-02-28T02:49:56;99794.25;;;-2.83;100.00
29903;BME280;30288;50.514;9.678;2023-02-28T02:52:09;99790.00;;;-2.87;100.00
29903;BME280;30288;50.514;9.678;2023-02-28T02:54:20;99786.88;;;-2.83;100.00
29903;BME280;30288;50.514;9.678;2023-02-28T02:56:32;99792.84;;;-2.78;100.00
29903;BME280;30288;50.514;9.678;2023-02-28T02:58:42;99790.88;;;-2.66;100.00
29903;BME280;30288;50.514;9.678;2023-02-28T03:00:52;99796.91;;;-2.59;100.00
29903;BME280;30288;50.514;9.678;2023-02-28T03:02:59;99802.94;;;-2.52;100.00
29903;BME280;30288;50.514;9.678;2023-02-28T03:05:17;99801.81;;;-2.40;100.00
29903;BME280;30288;50.514;9.678;2023-02-28T03:07:26;99803.69;;;-2.34;100.00
29903;BME280;30288;50.514;9.678;2023-02-28T03:09:33;99789.19;;;-2.27;100.00
29903;BME280;30288;50.514;9.678;2023-02-28T03:11:42;99795.88;;;-2.24;100.00
29903;BME280;30288;50.514;9.678;2023-02-28T03:14:14;99796.22;;;-2.15;100.00
29903;BME280;30288;50.514;9.678;2023-02-28T03:19:03;99797.78;;;-1.96;100.00
29903;BME280;30288;50.514;9.678;2023-02-28T03:21:22;99794.59;;;-1.94;100.00
29903;BME280;30288;50.514;9.678;2023-02-28T03:23:39;99787.41;;;-1.88;100.00
29903;BME280;30288;50.514;9.678;2023-02-28T03:25:59;99795.06;;;-1.82;100.00
29903;BME280;30288;50.514;9.678;2023-02-28T03:28:12;99797.91;;;-1.71;100.00
29903;BME280;30288;50.514;9.678;2023-02-28T03:30:27;99796.47;;;-1.66;100.00
29903;BME280;30288;50.514;9.678;2023-02-28T03:32:38;99789.91;;;-1.65;100.00
29903;BME280;30288;50.514;9.678;2023-02-28T03:34:49;99793.13;;;-1.68;100.00
29903;BME280;30288;50.514;9.678;2023-02-28T03:37:03;99796.28;;;-1.70;100.00
29903;BME280;30288;50.514;9.678;2023-02-28T03:39:11;99793.66;;;-1.75;100.00
29903;BME280;30288;50.514;9.678;2023-02-28T03:41:21;99791.09;;;-1.78;100.00
29903;BME280;30288;50.514;9.678;2023-02-28T03:43:32;99800.22;;;-1.76;100.00
29903;BME280;30288;50.514;9.678;2023-02-28T03:45:42;99802.47;;;-1.82;100.00
29903;BME280;30288;50.514;9.678;2023-02-28T03:47:53;99802.59;;;-1.79;100.00
29903;BME280;30288;50.514;9.678;2023-02-28T03:50:05;99796.63;;;-1.84;100.00
29903;BME280;30288;50.514;9.678;2023-02-28T03:52:14;99792.34;;;-1.88;100.00
29903;BME280;30288;50.514;9.678;2023-02-28T03:54:26;99792.34;;;-1.88;100.00
29903;BME280;30288;50.514;9.678;2023-02-28T03:56:38;99801.38;;;-1.88;100.00
29903;BME280;30288;50.514;9.678;2023-02-28T03:58:49;99801.16;;;-1.94;100.00
29903;BME280;30288;50.514;9.678;2023-02-28T04:01:03;99805.13;;;-1.98;100.00
29903;BME280;30288;50.514;9.678;2023-02-28T04:03:10;99801.88;;;-1.97;100.00
29903;BME280;30288;50.514;9.678;2023-02-28T04:05:15;99801.78;;;-2.00;100.00
29903;BME280;30288;50.514;9.678;2023-02-28T04:07:23;99803.69;;;-1.93;100.00
29903;BME280;30288;50.514;9.678;2023-02-28T04:09:28;99804.03;;;-1.84;100.00
29903;BME280;30288;50.514;9.678;2023-02-28T04:11:36;99804.38;;;-1.74;100.00
29903;BME280;30288;50.514;9.678;2023-02-28T04:13:42;99804.50;;;-1.71;100.00
29903;BME280;30288;50.514;9.678;2023-02-28T04:15:48;99809.56;;;-1.68;100.00
29903;BME280;30288;50.514;9.678;2023-02-28T04:17:54;99805.53;;;-1.66;100.00
29903;BME280;30288;50.514;9.678;2023-02-28T04:19:59;99804.72;;;-1.65;100.00
29903;BME280;30288;50.514;9.678;2023-02-28T04:22:05;99804.00;;;-1.63;100.00
29903;BME280;30288;50.514;9.678;2023-02-28T04:24:17;99803.16;;;-1.63;100.00
29903;BME280;30288;50.514;9.678;2023-02-28T04:26:22;99799.78;;;-1.65;100.00
29903;BME280;30288;50.514;9.678;2023-02-28T04:28:27;99803.88;;;-1.66;100.00
29903;BME280;30288;50.514;9.678;2023-02-28T04:30:32;99801.47;;;-1.64;100.00
29903;BME280;30288;50.514;9.678;2023-02-28T04:32:38;99814.84;;;-1.59;100.00
29903;BME280;30288;50.514;9.678;2023-02-28T04:34:44;99810.34;;;-1.69;100.00
29903;BME280;30288;50.514;9.678;2023-02-28T04:36:50;99806.19;;;-1.70;100.00
29903;BME280;30288;50.514;9.678;2023-02-28T04:39:16;99817.75;;;-1.69;100.00
29903;BME280;30288;50.514;9.678;2023-02-28T04:41:22;99811.25;;;-1.67;100.00
29903;BME280;30288;50.514;9.678;2023-02-28T04:43:32;99811.13;;;-1.70;100.00
29903;BME280;30288;50.514;9.678;2023-02-28T04:45:37;99811.00;;;-1.73;100.00
29903;BME280;30288;50.514;9.678;2023-02-28T04:47:42;99809.09;;;-1.81;100.00
29903;BME280;30288;50.514;9.678;2023-02-28T04:49:47;99808.13;;;-1.84;100.00
29903;BME280;30288;50.514;9.678;2023-02-28T04:51:53;99808.25;;;-1.81;100.00
29903;BME280;30288;50.514;9.678;2023-02-28T04:53:59;99804.94;;;-1.82;100.00
29903;BME280;30288;50.514;9.678;2023-02-28T04:56:09;99807.28;;;-1.85;100.00
29903;BME280;30288;50.514;9.678;2023-02-28T04:58:15;99810.66;;;-1.83;100.00
29903;BME280;30288;50.514;9.678;2023-02-28T05:00:21;99808.13;;;-1.84;100.00
29903;BME280;30288;50.514;9.678;2023-02-28T05:02:27;99811.50;;;-1.82;100.00
29903;BME280;30288;50.514;9.678;2023-02-28T05:04:33;99809.75;;;-1.85;100.00
29903;BME280;30288;50.514;9.678;2023-02-28T05:06:39;99812.78;;;-1.92;100.00
29903;BME280;30288;50.514;9.678;2023-02-28T05:08:44;99818.38;;;-1.96;100.00
29903;BME280;30288;50.514;9.678;2023-02-28T05:10:50;99812.84;;;-1.90;100.00
29903;BME280;30288;50.514;9.678;2023-02-28T05:12:58;99813.66;;;-1.90;100.00
29903;BME280;30288;50.514;9.678;2023-02-28T05:15:04;99821.97;;;-1.88;100.00
29903;BME280;30288;50.514;9.678;2023-02-28T05:17:09;99817.16;;;-1.85;100.00
29903;BME280;30288;50.514;9.678;2023-02-28T05:19:15;99815.34;;;-1.89;100.00
29903;BME280;30288;50.514;9.678;2023-02-28T05:21:29;99812.00;;;-1.91;100.00
29903;BME280;30288;50.514;9.678;2023-02-28T05:23:34;99812.84;;;-1.90;100.00
29903;BME280;30288;50.514;9.678;2023-02-28T05:25:40;99810.66;;;-1.83;100.00
29903;BME280;30288;50.514;9.678;2023-02-28T05:27:45;99816.38;;;-1.84;100.00
29903;BME280;30288;50.514;9.678;2023-02-28T05:29:53;99815.00;;;-1.77;100.00
29903;BME280;30288;50.514;9.678;2023-02-28T05:31:59;99817.28;;;-1.82;100.00
29903;BME280;30288;50.514;9.678;2023-02-28T05:34:05;99816.28;;;-1.87;100.00
29903;BME280;30288;50.514;9.678;2023-02-28T05:36:10;99820.28;;;-1.89;100.00
29903;BME280;30288;50.514;9.678;2023-02-28T05:38:15;99823.44;;;-1.93;100.00
29903;BME280;30288;50.514;9.678;2023-02-28T05:40:21;99821.72;;;-1.94;100.00
29903;BME280;30288;50.514;9.678;2023-02-28T05:42:26;99825.78;;;-1.96;100.00
29903;BME280;30288;50.514;9.678;2023-02-28T05:44:31;99826.31;;;-2.03;100.00
29903;BME280;30288;50.514;9.678;2023-02-28T05:46:39;99827.75;;;-2.08;100.00
29903;BME280;30288;50.514;9.678;2023-02-28T05:48:47;99826.72;;;-2.13;100.00
29903;BME280;30288;50.514;9.678;2023-02-28T05:50:52;99825.69;;;-2.18;100.00
29903;BME280;30288;50.514;9.678;2023-02-28T05:52:58;99828.19;;;-2.37;100.00
29903;BME280;30288;50.514;9.678;2023-02-28T05:55:04;99828.97;;;-2.19;100.00
29903;BME280;30288;50.514;9.678;2023-02-28T05:57:10;99832.31;;;-2.17;100.00
29903;BME280;30288;50.514;9.678;2023-02-28T05:59:25;99833.16;;;-2.16;100.00
29903;BME280;30288;50.514;9.678;2023-02-28T06:01:33;99845.44;;;-2.18;100.00
29903;BME280;30288;50.514;9.678;2023-02-28T06:03:43;99838.94;;;-2.16;100.00
29903;BME280;30288;50.514;9.678;2023-02-28T06:05:48;99837.34;;;-2.15;100.00
29903;BME280;30288;50.514;9.678;2023-02-28T06:07:53;99842.44;;;-2.11;100.00
29903;BME280;30288;50.514;9.678;2023-02-28T06:09:59;99836.41;;;-2.17;100.00
29903;BME280;30288;50.514;9.678;2023-02-28T06:12:06;99838.03;;;-2.18;100.00
29903;BME280;30288;50.514;9.678;2023-02-28T06:14:15;99845.44;;;-2.18;100.00
29903;BME280;30288;50.514;9.678;2023-02-28T06:16:21;99844.84;;;-2.12;100.00
29903;BME280;30288;50.514;9.678;2023-02-28T06:18:26;99845.81;;;-2.09;100.00
29903;BME280;30288;50.514;9.678;2023-02-28T06:20:34;99850.75;;;-2.09;100.00
29903;BME280;30288;50.514;9.678;2023-02-28T06:22:40;99845.81;;;-2.09;100.00
29903;BME280;30288;50.514;9.678;2023-02-28T06:24:46;99853.09;;;-2.12;100.00
29903;BME280;30288;50.514;9.678;2023-02-28T06:26:51;99855.44;;;-2.15;100.00
29903;BME280;30288;50.514;9.678;2023-02-28T06:28:56;99855.56;;;-2.12;100.00
29903;BME280;30288;50.514;9.678;2023-02-28T06:31:07;99848.81;;;-2.16;100.00
29903;BME280;30288;50.514;9.678;2023-02-28T06:33:14;99861.94;;;-2.17;100.00
29903;BME280;30288;50.514;9.678;2023-02-28T06:35:19;99860.38;;;-2.15;100.00
29903;BME280;30288;50.514;9.678;2023-02-28T06:37:27;99863.63;;;-2.16;100.00
29903;BME280;30288;50.514;9.678;2023-02-28T06:39:32;99867.13;;;-2.11;100.00
29903;BME280;30288;50.514;9.678;2023-02-28T06:41:37;99865.31;;;-2.15;100.00
29903;BME280;30288;50.514;9.678;2023-02-28T06:43:56;99855.81;;;-2.06;100.00
29903;BME280;30288;50.514;9.678;2023-02-28T06:46:05;99864.91;;;-2.05;100.00
29903;BME280;30288;50.514;9.678;2023-02-28T06:48:11;99862.44;;;-2.05;100.00
29903;BME280;30288;50.514;9.678;2023-02-28T06:50:16;99868.81;;;-2.10;100.00
29903;BME280;30288;50.514;9.678;2023-02-28T06:52:25;99867.78;;;-2.15;100.00
29903;BME280;30288;50.514;9.678;2023-02-28T06:54:31;99868.69;;;-2.13;100.00
29903;BME280;30288;50.514;9.678;2023-02-28T06:56:37;99870.38;;;-2.12;100.00
29903;BME280;30288;50.514;9.678;2023-02-28T06:58:45;99874.81;;;-2.03;100.00
29903;BME280;30288;50.514;9.678;2023-02-28T07:00:52;99871.84;;;-1.96;100.00
29903;BME280;30288;50.514;9.678;2023-02-28T07:02:58;99872.78;;;-1.93;100.00
29903;BME280;30288;50.514;9.678;2023-02-28T07:05:04;99881.22;;;-1.88;100.00
29903;BME280;30288;50.514;9.678;2023-02-28T07:07:10;99883.16;;;-1.81;100.00
29903;BME280;30288;50.514;9.678;2023-02-28T07:09:18;99885.06;;;-1.73;100.00
29903;BME280;30288;50.514;9.678;2023-02-28T07:11:27;99880.13;;;-1.73;100.00
29903;BME280;30288;50.514;9.678;2023-02-28T07:13:33;99882.59;;;-1.73;100.00
29903;BME280;30288;50.514;9.678;2023-02-28T07:15:38;99881.84;;;-1.72;100.00
29903;BME280;30288;50.514;9.678;2023-02-28T07:17:45;99884.56;;;-1.66;100.00
29903;BME280;30288;50.514;9.678;2023-02-28T07:19:51;99897.59;;;-1.48;100.00
29903;BME280;30288;50.514;9.678;2023-02-28T07:21:56;99892.78;;;-1.45;100.00
29903;BME280;30288;50.514;9.678;2023-02-28T07:24:03;99889.53;;;-1.44;100.00
29903;BME280;30288;50.514;9.678;2023-02-28T07:26:13;99892.66;;;-1.48;100.00
29903;BME280;30288;50.514;9.678;2023-02-28T07:28:20;99902.53;;;-1.48;100.00
29903;BME280;30288;50.514;9.678;2023-02-28T07:30:27;99900.97;;;-1.46;100.00
29903;BME280;30288;50.514;9.678;2023-02-28T07:32:33;99899.66;;;-1.38;100.00
29903;BME280;30288;50.514;9.678;2023-02-28T07:34:41;99891.00;;;-1.27;100.00
29903;BME280;30288;50.514;9.678;2023-02-28T07:36:48;99900.44;;;-1.17;100.00
29903;BME280;30288;50.514;9.678;2023-02-28T07:38:55;99892.19;;;-1.17;100.00
29903;BME280;30288;50.514;9.678;2023-02-28T07:41:00;99892.41;;;-1.11;100.00
29903;BME280;30288;50.514;9.678;2023-02-28T07:43:09;99893.44;;;-1.06;100.00
29903;BME280;30288;50.514;9.678;2023-02-28T07:45:14;99892.06;;;-0.98;100.00
29903;BME280;30288;50.514;9.678;2023-02-28T07:47:20;99891.69;;;-0.86;100.00
29903;BME280;30288;50.514;9.678;2023-02-28T07:49:30;99893.69;;;-0.76;100.00
29903;BME280;30288;50.514;9.678;2023-02-28T07:51:35;99892.16;;;-0.73;100.00
29903;BME280;30288;50.514;9.678;2023-02-28T07:53:40;99892.56;;;-0.62;100.00
29903;BME280;30288;50.514;9.678;2023-02-28T07:55:45;99899.22;;;-0.60;100.00
29903;BME280;30288;50.514;9.678;2023-02-28T07:57:50;99885.31;;;-0.56;100.00
29903;BME280;30288;50.514;9.678;2023-02-28T07:59:58;99884.84;;;-0.46;100.00
29903;BME280;30288;50.514;9.678;2023-02-28T08:02:13;99888.25;;;-0.44;100.00
29903;BME280;30288;50.514;9.678;2023-02-28T08:04:19;99887.63;;;-0.38;100.00
29903;BME280;30288;50.514;9.678;2023-02-28T08:06:25;99884.63;;;-0.28;100.00
29903;BME280;30288;50.514;9.678;2023-02-28T08:08:30;99894.16;;;-0.15;100.00
29903;BME280;30288;50.514;9.678;2023-02-28T08:10:36;99896.81;;;-0.09;100.00
29903;BME280;30288;50.514;9.678;2023-02-28T08:12:42;99888.06;;;0.00;100.00
29903;BME280;30288;50.514;9.678;2023-02-28T08:14:47;99886.78;;;0.12;100.00
29903;BME280;30288;50.514;9.678;2023-02-28T08:16:54;99885.44;;;0.21;100.00
29903;BME280;30288;50.514;9.678;2023-02-28T08:18:59;99883.25;;;0.30;100.00
29903;BME280;30288;50.514;9.678;2023-02-28T08:21:09;99892.59;;;0.39;100.00
29903;BME280;30288;50.514;9.678;2023-02-28T08:23:14;99884.81;;;0.54;100.00
29903;BME280;30288;50.514;9.678;2023-02-28T08:25:20;99887.41;;;0.58;100.00
29903;BME280;30288;50.514;9.678;2023-02-28T08:27:25;99888.66;;;0.72;100.00
29903;BME280;30288;50.514;9.678;2023-02-28T08:29:31;99895.31;;;0.73;100.00
29903;BME280;30288;50.514;9.678;2023-02-28T08:31:36;99888.88;;;0.78;100.00
29903;BME280;30288;50.514;9.678;2023-02-28T08:33:44;99887.44;;;0.86;100.00
29903;BME280;30288;50.514;9.678;2023-02-28T08:35:53;99880.38;;;0.99;100.00
29903;BME280;30288;50.514;9.678;2023-02-28T08:37:59;99876.38;;;1.04;100.00
29903;BME280;30288;50.514;9.678;2023-02-28T08:40:07;99881.59;;;1.13;100.00
29903;BME280;30288;50.514;9.678;2023-02-28T08:42:12;99880.25;;;1.24;100.00
29903;BME280;30288;50.514;9.678;2023-02-28T08:44:17;99875.63;;;1.36;100.00
29903;BME280;30288;50.514;9.678;2023-02-28T08:46:24;99870.97;;;1.48;100.00
29903;BME280;30288;50.514;9.678;2023-02-28T08:48:32;99879.38;;;1.52;100.00
29903;BME280;30288;50.514;9.678;2023-02-28T08:50:42;99879.88;;;1.71;100.00
29903;BME280;30288;50.514;9.678;2023-02-28T08:52:56;99873.97;;;1.68;100.00
29903;BME280;30288;50.514;9.678;2023-02-28T08:55:02;99873.53;;;1.83;100.00
29903;BME280;30288;50.514;9.678;2023-02-28T08:57:07;99871.00;;;1.81;100.00
29903;BME280;30288;50.514;9.678;2023-02-28T08:59:12;99870.31;;;1.87;100.00
29903;BME280;30288;50.514;9.678;2023-02-28T09:01:20;99868.72;;;1.89;100.00
29903;BME280;30288;50.514;9.678;2023-02-28T09:03:26;99868.78;;;1.92;100.00
29903;BME280;30288;50.514;9.678;2023-02-28T09:05:31;99870.66;;;1.99;100.00
29903;BME280;30288;50.514;9.678;2023-02-28T09:07:39;99864.66;;;1.92;100.00
29903;BME280;30288;50.514;9.678;2023-02-28T09:09:44;99872.91;;;1.91;100.00
29903;BME280;30288;50.514;9.678;2023-02-28T09:11:59;99875.69;;;2.02;100.00
29903;BME280;30288;50.514;9.678;2023-02-28T09:14:04;99866.03;;;2.14;100.00
29903;BME280;30288;50.514;9.678;2023-02-28T09:16:14;99867.19;;;2.28;100.00
29903;BME280;30288;50.514;9.678;2023-02-28T09:18:20;99876.84;;;2.50;100.00
29903;BME280;30288;50.514;9.678;2023-02-28T09:20:25;99877.03;;;2.59;100.00
29903;BME280;30288;50.514;9.678;2023-02-28T09:22:30;99872.09;;;2.61;100.00
29903;BME280;30288;50.514;9.678;2023-02-28T09:24:38;99872.91;;;2.60;100.00
29903;BME280;30288;50.514;9.678;2023-02-28T09:26:43;99874.91;;;2.76;100.00
29903;BME280;30288;50.514;9.678;2023-02-28T09:29:05;99869.31;;;2.85;100.00
29903;BME280;30288;50.514;9.678;2023-02-28T09:31:15;99868.47;;;2.84;100.00
29903;BME280;30288;50.514;9.678;2023-02-28T09:33:23;99872.72;;;2.90;100.00
29903;BME280;30288;50.514;9.678;2023-02-28T09:35:28;99877.19;;;2.66;100.00
29903;BME280;30288;50.514;9.678;2023-02-28T09:37:33;99870.66;;;2.71;100.00
29903;BME280;30288;50.514;9.678;2023-02-28T09:39:41;99872.59;;;2.84;100.00
29903;BME280;30288;50.514;9.678;2023-02-28T09:41:50;99869.72;;;2.67;100.00
29903;BME280;30288;50.514;9.678;2023-02-28T09:43:58;99869.72;;;2.67;100.00
29903;BME280;30288;50.514;9.678;2023-02-28T09:46:11;99871.38;;;2.67;100.00
29903;BME280;30288;50.514;9.678;2023-02-28T09:48:25;99866.50;;;2.70;100.00
29903;BME280;30288;50.514;9.678;2023-02-28T09:50:36;99871.38;;;3.04;100.00
29903;BME280;30288;50.514;9.678;2023-02-28T09:52:45;99861.81;;;3.25;100.00
29903;BME280;30288;50.514;9.678;2023-02-28T09:54:55;99857.00;;;3.34;100.00
29903;BME280;30288;50.514;9.678;2023-02-28T09:57:07;99853.13;;;3.95;100.00
29903;BME280;30288;50.514;9.678;2023-02-28T09:59:34;99859.63;;;3.87;100.00
29903;BME280;30288;50.514;9.678;2023-02-28T10:01:49;99855.09;;;3.65;100.00
29903;BME280;30288;50.514;9.678;2023-02-28T10:03:58;99866.56;;;3.57;100.00
29903;BME280;30288;50.514;9.678;2023-02-28T10:06:12;99869.81;;;3.99;100.00
29903;BME280;30288;50.514;9.678;2023-02-28T10:08:23;99865.94;;;4.16;100.00
29903;BME280;30288;50.514;9.678;2023-02-28T10:10:39;99877.97;;;4.42;100.00
29903;BME280;30288;50.514;9.678;2023-02-28T10:12:45;99878.38;;;4.13;100.00
29903;BME280;30288;50.514;9.678;2023-02-28T10:14:53;99871.06;;;3.76;100.00
29903;BME280;30288;50.514;9.678;2023-02-28T10:17:04;99869.25;;;3.66;99.90
29903;BME280;30288;50.514;9.678;2023-02-28T10:19:14;99877.72;;;3.77;100.00
29903;BME280;30288;50.514;9.678;2023-02-28T10:21:27;99861.50;;;4.00;100.00
29903;BME280;30288;50.514;9.678;2023-02-28T10:23:36;99864.22;;;4.12;100.00
29903;BME280;30288;50.514;9.678;2023-02-28T10:25:47;99863.19;;;4.01;100.00
29903;BME280;30288;50.514;9.678;2023-02-28T10:28:04;99868.41;;;4.13;100.00
29903;BME280;30288;50.514;9.678;2023-02-28T10:30:12;99860.81;;;4.63;100.00
29903;BME280;30288;50.514;9.678;2023-02-28T10:32:21;99861.22;;;4.93;100.00
29903;BME280;30288;50.514;9.678;2023-02-28T10:34:27;99853.72;;;5.67;100.00
29903;BME280;30288;50.514;9.678;2023-02-28T10:36:32;99860.09;;;6.25;100.00
29903;BME280;30288;50.514;9.678;2023-02-28T10:38:39;99857.69;;;6.39;98.54
29903;BME280;30288;50.514;9.678;2023-02-28T10:40:48;99846.72;;;6.23;97.66
29903;BME280;30288;50.514;9.678;2023-02-28T10:42:58;99855.13;;;6.33;96.01
29903;BME280;30288;50.514;9.678;2023-02-28T10:45:12;99853.13;;;5.88;93.81
29903;BME280;30288;50.514;9.678;2023-02-28T10:47:19;99853.13;;;5.88;93.47
29903;BME280;30288;50.514;9.678;2023-02-28T10:49:27;99849.66;;;5.77;94.74
29903;BME280;30288;50.514;9.678;2023-02-28T10:51:38;99852.19;;;5.78;94.00
29903;BME280;30288;50.514;9.678;2023-02-28T10:53:49;99852.44;;;6.08;94.51
29903;BME280;30288;50.514;9.678;2023-02-28T10:56:16;99853.78;;;5.73;93.06
29903;BME280;30288;50.514;9.678;2023-02-28T10:58:29;99858.47;;;5.41;98.38
29903;BME280;30288;50.514;9.678;2023-02-28T11:00:36;99863.97;;;5.13;97.53
29903;BME280;30288;50.514;9.678;2023-02-28T11:02:41;99854.69;;;5.04;96.53
29903;BME280;30288;50.514;9.678;2023-02-28T11:04:47;99852.97;;;4.97;98.18
29903;BME280;30288;50.514;9.678;2023-02-28T11:06:58;99855.13;;;5.41;99.24
29903;BME280;30288;50.514;9.678;2023-02-28T11:09:13;99858.53;;;5.49;96.38
29903;BME280;30288;50.514;9.678;2023-02-28T11:11:26;99856.78;;;5.42;96.87
29903;BME280;30288;50.514;9.678;2023-02-28T11:13:35;99861.75;;;5.36;95.66
29903;BME280;30288;50.514;9.678;2023-02-28T11:15:41;99856.91;;;5.51;94.44
29903;BME280;30288;50.514;9.678;2023-02-28T11:17:54;99851.28;;;5.73;93.74
29903;BME280;30288;50.514;9.678;2023-02-28T11:20:04;99849.88;;;5.98;93.52